sensor_id;sensor_type;location;lat;lon;timestamp;temperature;humidity
1379;DHT22;683;48.738;9.226;2023-08-24T00:01:01;18.70;99.90
1379;DHT22;683;48.738;9.226;2023-08-24T00:03:28;18.70;99.90
1379;DHT22;683;48.738;9.226;2023-08-24T00:05:55;18.70;99.90
1379;DHT22;683;48.738;9.226;2023-08-24T00:08:22;18.70;99.90
1379;DHT22;683;48.738;9.226;2023-08-24T00:10:49;18.70;99.90
1379;DHT22;683;48.738;9.226;2023-08-24T00:13:16;18.60;99.90
1379;DHT22;683;48.738;9.226;2023-08-24T00:15:45;18.70;99.90
1379;DHT22;683;48.738;9.226;2023-08-24T00:18:12;18.70;99.90
1379;DHT22;683;48.738;9.226;2023-08-24T00:20:39;18.60;99.90
1379;DHT22;683;48.738;9.226;2023-08-24T00:23:07;18.60;99.90
1379;DHT22;683;48.738;9.226;2023-08-24T00:25:35;18.60;99.90
1379;DHT22;683;48.738;9.226;2023-08-24T00:28:02;18.50;99.90
1379;DHT22;683;48.738;9.226;2023-08-24T00:30:30;18.50;99.90
1379;DHT22;683;48.738;9.226;2023-08-24T00:32:59;18.50;99.90
1379;DHT22;683;48.738;9.226;2023-08-24T00:35:26;18.60;99.90
1379;DHT22;683;48.738;9.226;2023-08-24T00:37:54;18.70;99.90
1379;DHT22;683;48.738;9.226;2023-08-24T00:40:21;18.80;99.90
1379;DHT22;683;48.738;9.226;2023-08-24T00:42:48;18.80;99.90
1379;DHT22;683;48.738;9.226;2023-08-24T00:45:15;18.70;99.90
1379;DHT22;683;48.738;9.226;2023-08-24T00:47:44;18.70;99.90
1379;DHT22;683;48.738;9.226;2023-08-24T00:50:13;18.60;99.90
1379;DHT22;683;48.738;9.226;2023-08-24T00:52:41;18.50;99.90
1379;DHT22;683;48.738;9.226;2023-08-24T00:55:09;18.50;99.90
1379;DHT22;683;48.738;9.226;2023-08-24T00:57:38;18.40;99.90
1379;DHT22;683;48.738;9.226;2023-08-24T01:00:07;18.50;99.90
1379;DHT22;683;48.738;9.226;2023-08-24T01:02:36;18.50;99.90
1379;DHT22;683;48.738;9.226;2023-08-24T01:05:04;18.40;99.90
1379;DHT22;683;48.738;9.226;2023-08-24T01:07:33;18.40;99.90
1379;DHT22;683;48.738;9.226;2023-08-24T01:10:03;18.40;99.90
1379;DHT22;683;48.738;9.226;2023-08-24T01:12:37;18.30;99.90
1379;DHT22;683;48.738;9.226;2023-08-24T01:15:12;18.30;99.90
1379;DHT22;683;48.738;9.226;2023-08-24T01:17:42;18.30;99.90
1379;DHT22;683;48.738;9.226;2023-08-24T01:20:10;18.30;99.90
1379;DHT22;683;48.738;9.226;2023-08-24T01:22:49;18.30;99.90
1379;DHT22;683;48.738;9.226;2023-08-24T01:25:24;18.20;99.90
1379;DHT22;683;48.738;9.226;2023-08-24T01:28:02;18.20;99.90
1379;DHT22;683;48.738;9.226;2023-08-24T01:30:32;18.20;99.90
1379;DHT22;683;48.738;9.226;2023-08-24T01:33:02;18.10;99.90
1379;DHT22;683;48.738;9.226;2023-08-24T01:35:30;18.10;99.90
1379;DHT22;683;48.738;9.226;2023-08-24T01:37:59;18.00;99.90
1379;DHT22;683;48.738;9.226;2023-08-24T01:40:35;18.00;99.90
1379;DHT22;683;48.738;9.226;2023-08-24T01:43:07;18.00;99.90
1379;DHT22;683;48.738;9.226;2023-08-24T01:45:37;18.00;99.90
1379;DHT22;683;48.738;9.226;2023-08-24T01:48:06;18.00;99.90
1379;DHT22;683;48.738;9.226;2023-08-24T01:50:34;18.00;99.90
1379;DHT22;683;48.738;9.226;2023-08-24T01:53:03;18.00;99.90
1379;DHT22;683;48.738;9.226;2023-08-24T01:55:30;18.00;99.90
1379;DHT22;683;48.738;9.226;2023-08-24T01:57:58;18.00;99.90
1379;DHT22;683;48.738;9.226;2023-08-24T02:00:27;17.90;99.90
1379;DHT22;683;48.738;9.226;2023-08-24T02:02:54;18.00;99.90
1379;DHT22;683;48.738;9.226;2023-08-24T02:05:21;17.80;99.90
1379;DHT22;683;48.738;9.226;2023-08-24T02:07:51;17.70;99.90
1379;DHT22;683;48.738;9.226;2023-08-24T02:10:18;17.80;99.90
1379;DHT22;683;48.738;9.226;2023-08-24T02:12:45;17.80;99.90
1379;DHT22;683;48.738;9.226;2023-08-24T02:15:12;17.80;99.90
1379;DHT22;683;48.738;9.226;2023-08-24T02:17:41;17.80;99.90
1379;DHT22;683;48.738;9.226;2023-08-24T02:20:09;17.70;99.90
1379;DHT22;683;48.738;9.226;2023-08-24T02:22:37;17.70;99.90
1379;DHT22;683;48.738;9.226;2023-08-24T02:25:05;17.60;99.90
1379;DHT22;683;48.738;9.226;2023-08-24T02:27:33;17.60;99.90
1379;DHT22;683;48.738;9.226;2023-08-24T02:30:00;17.50;99.90
1379;DHT22;683;48.738;9.226;2023-08-24T02:32:29;17.50;99.90
1379;DHT22;683;48.738;9.226;2023-08-24T02:35:01;17.50;99.90
1379;DHT22;683;48.738;9.226;2023-08-24T02:37:30;17.50;99.90
1379;DHT22;683;48.738;9.226;2023-08-24T02:39:57;17.50;99.90
1379;DHT22;683;48.738;9.226;2023-08-24T02:42:24;17.50;99.90
1379;DHT22;683;48.738;9.226;2023-08-24T02:44:51;17.60;99.90
1379;DHT22;683;48.738;9.226;2023-08-24T02:47:18;17.70;99.90
1379;DHT22;683;48.738;9.226;2023-08-24T02:49:46;17.90;99.90
1379;DHT22;683;48.738;9.226;2023-08-24T02:52:14;18.00;99.90
1379;DHT22;683;48.738;9.226;2023-08-24T02:54:42;18.10;99.90
1379;DHT22;683;48.738;9.226;2023-08-24T02:57:09;18.30;99.90
1379;DHT22;683;48.738;9.226;2023-08-24T02:59:36;18.40;99.90
1379;DHT22;683;48.738;9.226;2023-08-24T03:02:03;18.50;99.90
1379;DHT22;683;48.738;9.226;2023-08-24T03:04:31;18.50;99.90
1379;DHT22;683;48.738;9.226;2023-08-24T03:06:59;18.50;99.90
1379;DHT22;683;48.738;9.226;2023-08-24T03:09:28;18.50;99.90
1379;DHT22;683;48.738;9.226;2023-08-24T03:11:55;18.50;99.90
1379;DHT22;683;48.738;9.226;2023-08-24T03:14:22;18.50;99.90
1379;DHT22;683;48.738;9.226;2023-08-24T03:16:50;18.40;99.90
1379;DHT22;683;48.738;9.226;2023-08-24T03:19:17;18.40;99.90
1379;DHT22;683;48.738;9.226;2023-08-24T03:21:45;18.30;99.90
1379;DHT22;683;48.738;9.226;2023-08-24T03:24:12;18.30;99.90
1379;DHT22;683;48.738;9.226;2023-08-24T03:26:40;18.30;99.90
1379;DHT22;683;48.738;9.226;2023-08-24T03:29:08;18.30;99.90
1379;DHT22;683;48.738;9.226;2023-08-24T03:31:35;18.40;99.90
1379;DHT22;683;48.738;9.226;2023-08-24T03:34:02;18.50;99.90
1379;DHT22;683;48.738;9.226;2023-08-24T03:36:30;18.50;99.90
1379;DHT22;683;48.738;9.226;2023-08-24T03:38:58;18.40;99.90
1379;DHT22;683;48.738;9.226;2023-08-24T03:41:25;18.40;99.90
1379;DHT22;683;48.738;9.226;2023-08-24T03:43:54;18.40;99.90
1379;DHT22;683;48.738;9.226;2023-08-24T03:46:21;18.40;99.90
1379;DHT22;683;48.738;9.226;2023-08-24T03:48:48;18.40;99.90
1379;DHT22;683;48.738;9.226;2023-08-24T03:51:15;18.30;99.90
1379;DHT22;683;48.738;9.226;2023-08-24T03:53:42;18.40;99.90
1379;DHT22;683;48.738;9.226;2023-08-24T03:56:10;18.40;99.90
1379;DHT22;683;48.738;9.226;2023-08-24T03:58:41;18.50;99.90
1379;DHT22;683;48.738;9.226;2023-08-24T04:01:11;18.50;99.90
1379;DHT22;683;48.738;9.226;2023-08-24T04:03:39;18.50;99.90
1379;DHT22;683;48.738;9.226;2023-08-24T04:06:06;18.60;99.90
1379;DHT22;683;48.738;9.226;2023-08-24T04:08:33;18.60;99.90
1379;DHT22;683;48.738;9.226;2023-08-24T04:11:01;18.60;99.90
1379;DHT22;683;48.738;9.226;2023-08-24T04:13:28;18.60;99.90
1379;DHT22;683;48.738;9.226;2023-08-24T04:15:55;18.60;99.90
1379;DHT22;683;48.738;9.226;2023-08-24T04:18:24;18.60;99.90
1379;DHT22;683;48.738;9.226;2023-08-24T04:20:52;18.60;99.90
1379;DHT22;683;48.738;9.226;2023-08-24T04:23:24;18.60;99.90
1379;DHT22;683;48.738;9.226;2023-08-24T04:25:51;18.70;99.90
1379;DHT22;683;48.738;9.226;2023-08-24T04:28:19;18.70;99.90
1379;DHT22;683;48.738;9.226;2023-08-24T04:30:50;18.60;99.90
1379;DHT22;683;48.738;9.226;2023-08-24T04:33:16;18.60;99.90
1379;DHT22;683;48.738;9.226;2023-08-24T04:35:46;18.70;99.90
1379;DHT22;683;48.738;9.226;2023-08-24T04:38:14;18.60;99.90
1379;DHT22;683;48.738;9.226;2023-08-24T04:40:49;18.60;99.90
1379;DHT22;683;48.738;9.226;2023-08-24T04:43:17;18.50;99.90
1379;DHT22;683;48.738;9.226;2023-08-24T04:45:46;18.50;99.90
1379;DHT22;683;48.738;9.226;2023-08-24T04:48:14;18.40;99.90
1379;DHT22;683;48.738;9.226;2023-08-24T04:50:43;18.40;99.90
1379;DHT22;683;48.738;9.226;2023-08-24T04:53:12;18.30;99.90
1379;DHT22;683;48.738;9.226;2023-08-24T04:55:40;18.30;99.90
1379;DHT22;683;48.738;9.226;2023-08-24T04:58:07;18.20;99.90
1379;DHT22;683;48.738;9.226;2023-08-24T05:00:34;18.20;99.90
1379;DHT22;683;48.738;9.226;2023-08-24T05:03:02;18.10;99.90
1379;DHT22;683;48.738;9.226;2023-08-24T05:05:30;18.10;99.90
1379;DHT22;683;48.738;9.226;2023-08-24T05:07:57;18.10;99.90
1379;DHT22;683;48.738;9.226;2023-08-24T05:10:29;18.10;99.90
1379;DHT22;683;48.738;9.226;2023-08-24T05:12:56;18.20;99.90
1379;DHT22;683;48.738;9.226;2023-08-24T05:15:24;18.30;99.90
1379;DHT22;683;48.738;9.226;2023-08-24T05:17:51;18.40;99.90
1379;DHT22;683;48.738;9.226;2023-08-24T05:20:20;18.50;99.90
1379;DHT22;683;48.738;9.226;2023-08-24T05:22:47;18.50;99.90
1379;DHT22;683;48.738;9.226;2023-08-24T05:25:15;18.70;99.90
1379;DHT22;683;48.738;9.226;2023-08-24T05:27:44;18.70;99.90
1379;DHT22;683;48.738;9.226;2023-08-24T05:30:12;18.80;99.90
1379;DHT22;683;48.738;9.226;2023-08-24T05:32:39;18.90;99.90
1379;DHT22;683;48.738;9.226;2023-08-24T05:35:08;19.10;99.90
1379;DHT22;683;48.738;9.226;2023-08-24T05:37:35;19.20;99.90
1379;DHT22;683;48.738;9.226;2023-08-24T05:40:03;19.30;99.90
1379;DHT22;683;48.738;9.226;2023-08-24T05:42:31;19.40;99.90
1379;DHT22;683;48.738;9.226;2023-08-24T05:44:59;19.50;99.90
1379;DHT22;683;48.738;9.226;2023-08-24T05:47:29;19.50;99.90
1379;DHT22;683;48.738;9.226;2023-08-24T05:49:56;19.50;99.90
1379;DHT22;683;48.738;9.226;2023-08-24T05:52:24;19.50;99.90
1379;DHT22;683;48.738;9.226;2023-08-24T05:54:51;19.60;99.90
1379;DHT22;683;48.738;9.226;2023-08-24T05:57:18;19.70;99.90
1379;DHT22;683;48.738;9.226;2023-08-24T05:59:45;19.90;99.90
1379;DHT22;683;48.738;9.226;2023-08-24T06:02:13;20.00;99.90
1379;DHT22;683;48.738;9.226;2023-08-24T06:04:40;20.10;99.90
1379;DHT22;683;48.738;9.226;2023-08-24T06:07:07;20.30;99.90
1379;DHT22;683;48.738;9.226;2023-08-24T06:09:37;20.40;99.90
1379;DHT22;683;48.738;9.226;2023-08-24T06:12:05;20.50;99.90
1379;DHT22;683;48.738;9.226;2023-08-24T06:14:33;20.70;99.90
1379;DHT22;683;48.738;9.226;2023-08-24T06:17:00;20.80;99.90
1379;DHT22;683;48.738;9.226;2023-08-24T06:19:28;20.90;99.90
1379;DHT22;683;48.738;9.226;2023-08-24T06:21:55;21.00;99.90
1379;DHT22;683;48.738;9.226;2023-08-24T06:24:23;21.00;99.90
1379;DHT22;683;48.738;9.226;2023-08-24T06:26:50;21.10;99.90
1379;DHT22;683;48.738;9.226;2023-08-24T06:29:17;21.20;99.90
1379;DHT22;683;48.738;9.226;2023-08-24T06:31:44;21.30;99.90
1379;DHT22;683;48.738;9.226;2023-08-24T06:34:11;21.30;99.90
1379;DHT22;683;48.738;9.226;2023-08-24T06:36:40;21.40;99.90
1379;DHT22;683;48.738;9.226;2023-08-24T06:39:07;21.50;99.90
1379;DHT22;683;48.738;9.226;2023-08-24T06:41:35;21.50;99.90
1379;DHT22;683;48.738;9.226;2023-08-24T06:44:06;21.50;99.90
1379;DHT22;683;48.738;9.226;2023-08-24T06:46:34;21.50;99.90
1379;DHT22;683;48.738;9.226;2023-08-24T06:49:01;21.40;99.90
1379;DHT22;683;48.738;9.226;2023-08-24T06:51:29;21.40;99.90
1379;DHT22;683;48.738;9.226;2023-08-24T06:53:57;21.40;99.90
1379;DHT22;683;48.738;9.226;2023-08-24T06:56:24;21.50;99.90
1379;DHT22;683;48.738;9.226;2023-08-24T06:58:51;21.50;99.90
1379;DHT22;683;48.738;9.226;2023-08-24T07:01:18;21.60;99.90
1379;DHT22;683;48.738;9.226;2023-08-24T07:03:45;21.60;99.90
1379;DHT22;683;48.738;9.226;2023-08-24T07:06:13;21.70;99.90
1379;DHT22;683;48.738;9.226;2023-08-24T07:08:40;21.80;99.90
1379;DHT22;683;48.738;9.226;2023-08-24T07:11:08;21.90;99.90
1379;DHT22;683;48.738;9.226;2023-08-24T07:13:36;22.10;99.90
1379;DHT22;683;48.738;9.226;2023-08-24T07:16:03;22.30;99.90
1379;DHT22;683;48.738;9.226;2023-08-24T07:18:30;22.60;99.90
1379;DHT22;683;48.738;9.226;2023-08-24T07:20:58;22.80;99.90
1379;DHT22;683;48.738;9.226;2023-08-24T07:23:25;23.10;99.90
1379;DHT22;683;48.738;9.226;2023-08-24T07:25:52;23.40;99.90
1379;DHT22;683;48.738;9.226;2023-08-24T07:28:21;23.60;99.90
1379;DHT22;683;48.738;9.226;2023-08-24T07:30:48;23.60;99.90
1379;DHT22;683;48.738;9.226;2023-08-24T07:33:15;23.70;99.90
1379;DHT22;683;48.738;9.226;2023-08-24T07:35:42;23.70;99.90
1379;DHT22;683;48.738;9.226;2023-08-24T07:38:10;23.70;99.90
1379;DHT22;683;48.738;9.226;2023-08-24T07:40:37;23.70;99.90
1379;DHT22;683;48.738;9.226;2023-08-24T07:43:04;23.50;99.90
1379;DHT22;683;48.738;9.226;2023-08-24T07:45:33;23.40;99.90
1379;DHT22;683;48.738;9.226;2023-08-24T07:48:00;23.20;99.90
1379;DHT22;683;48.738;9.226;2023-08-24T07:50:27;23.30;99.90
1379;DHT22;683;48.738;9.226;2023-08-24T07:52:54;23.50;99.90
1379;DHT22;683;48.738;9.226;2023-08-24T07:55:22;23.60;99.90
1379;DHT22;683;48.738;9.226;2023-08-24T07:57:51;23.70;99.80
1379;DHT22;683;48.738;9.226;2023-08-24T08:00:21;23.90;99.60
1379;DHT22;683;48.738;9.226;2023-08-24T08:02:51;24.00;99.60
1379;DHT22;683;48.738;9.226;2023-08-24T08:05:19;24.20;99.90
1379;DHT22;683;48.738;9.226;2023-08-24T08:07:46;24.40;99.10
1379;DHT22;683;48.738;9.226;2023-08-24T08:10:16;24.50;96.80
1379;DHT22;683;48.738;9.226;2023-08-24T08:12:46;24.70;97.30
1379;DHT22;683;48.738;9.226;2023-08-24T08:15:13;24.90;98.20
1379;DHT22;683;48.738;9.226;2023-08-24T08:17:40;25.00;97.00
1379;DHT22;683;48.738;9.226;2023-08-24T08:20:09;25.00;96.00
1379;DHT22;683;48.738;9.226;2023-08-24T08:22:37;25.00;96.70
1379;DHT22;683;48.738;9.226;2023-08-24T08:25:05;24.90;95.20
1379;DHT22;683;48.738;9.226;2023-08-24T08:27:32;25.00;95.30
1379;DHT22;683;48.738;9.226;2023-08-24T08:30:00;25.20;94.60
1379;DHT22;683;48.738;9.226;2023-08-24T08:32:27;25.40;95.80
1379;DHT22;683;48.738;9.226;2023-08-24T08:34:54;25.50;94.50
1379;DHT22;683;48.738;9.226;2023-08-24T08:37:24;25.70;93.50
1379;DHT22;683;48.738;9.226;2023-08-24T08:39:51;25.90;91.50
1379;DHT22;683;48.738;9.226;2023-08-24T08:42:18;26.10;90.60
1379;DHT22;683;48.738;9.226;2023-08-24T08:44:46;26.20;92.70
1379;DHT22;683;48.738;9.226;2023-08-24T08:47:14;26.50;90.30
1379;DHT22;683;48.738;9.226;2023-08-24T08:49:42;26.70;89.20
1379;DHT22;683;48.738;9.226;2023-08-24T08:52:10;26.90;89.70
1379;DHT22;683;48.738;9.226;2023-08-24T08:54:39;26.90;88.80
1379;DHT22;683;48.738;9.226;2023-08-24T08:57:07;27.10;90.30
1379;DHT22;683;48.738;9.226;2023-08-24T08:59:35;27.20;88.00
1379;DHT22;683;48.738;9.226;2023-08-24T09:02:03;27.30;90.60
1379;DHT22;683;48.738;9.226;2023-08-24T09:04:32;27.30;86.20
1379;DHT22;683;48.738;9.226;2023-08-24T09:07:00;27.40;84.70
1379;DHT22;683;48.738;9.226;2023-08-24T09:09:30;27.50;83.90
1379;DHT22;683;48.738;9.226;2023-08-24T09:11:59;27.50;86.10
1379;DHT22;683;48.738;9.226;2023-08-24T09:14:26;27.70;88.20
1379;DHT22;683;48.738;9.226;2023-08-24T09:16:54;27.50;82.40
1379;DHT22;683;48.738;9.226;2023-08-24T09:19:28;27.50;82.40
1379;DHT22;683;48.738;9.226;2023-08-24T09:21:57;27.50;86.40
1379;DHT22;683;48.738;9.226;2023-08-24T09:24:29;27.60;86.30
1379;DHT22;683;48.738;9.226;2023-08-24T09:26:59;27.70;85.60
1379;DHT22;683;48.738;9.226;2023-08-24T09:29:27;27.90;86.40
1379;DHT22;683;48.738;9.226;2023-08-24T09:31:54;28.00;83.40
1379;DHT22;683;48.738;9.226;2023-08-24T09:34:24;28.20;82.00
1379;DHT22;683;48.738;9.226;2023-08-24T09:36:53;28.40;83.30
1379;DHT22;683;48.738;9.226;2023-08-24T09:39:20;28.50;78.20
1379;DHT22;683;48.738;9.226;2023-08-24T09:41:49;28.50;79.60
1379;DHT22;683;48.738;9.226;2023-08-24T09:44:18;28.50;82.50
1379;DHT22;683;48.738;9.226;2023-08-24T09:46:46;28.50;82.10
1379;DHT22;683;48.738;9.226;2023-08-24T09:49:13;28.50;77.50
1379;DHT22;683;48.738;9.226;2023-08-24T09:51:40;28.60;82.30
1379;DHT22;683;48.738;9.226;2023-08-24T09:54:10;28.60;81.40
1379;DHT22;683;48.738;9.226;2023-08-24T09:56:40;28.60;74.70
1379;DHT22;683;48.738;9.226;2023-08-24T09:59:12;28.70;78.30
1379;DHT22;683;48.738;9.226;2023-08-24T10:01:45;28.70;76.30
1379;DHT22;683;48.738;9.226;2023-08-24T10:04:14;28.80;81.30
1379;DHT22;683;48.738;9.226;2023-08-24T10:06:42;29.00;75.00
1379;DHT22;683;48.738;9.226;2023-08-24T10:09:14;29.30;74.00
1379;DHT22;683;48.738;9.226;2023-08-24T10:11:49;29.50;80.50
1379;DHT22;683;48.738;9.226;2023-08-24T10:14:22;29.50;74.10
1379;DHT22;683;48.738;9.226;2023-08-24T10:16:53;29.50;78.60
1379;DHT22;683;48.738;9.226;2023-08-24T10:19:21;29.40;81.30
1379;DHT22;683;48.738;9.226;2023-08-24T10:21:49;29.30;79.90
1379;DHT22;683;48.738;9.226;2023-08-24T10:24:17;29.50;74.60
1379;DHT22;683;48.738;9.226;2023-08-24T10:26:47;29.50;78.90
1379;DHT22;683;48.738;9.226;2023-08-24T10:29:16;29.80;77.30
1379;DHT22;683;48.738;9.226;2023-08-24T10:31:43;29.90;74.90
1379;DHT22;683;48.738;9.226;2023-08-24T10:34:12;30.20;79.10
1379;DHT22;683;48.738;9.226;2023-08-24T10:36:40;30.40;75.50
1379;DHT22;683;48.738;9.226;2023-08-24T10:39:07;30.60;72.90
1379;DHT22;683;48.738;9.226;2023-08-24T10:41:47;30.80;73.40
1379;DHT22;683;48.738;9.226;2023-08-24T10:44:24;31.00;78.80
1379;DHT22;683;48.738;9.226;2023-08-24T10:47:11;31.10;77.50
1379;DHT22;683;48.738;9.226;2023-08-24T10:49:40;31.20;76.10
1379;DHT22;683;48.738;9.226;2023-08-24T10:52:17;31.20;74.70
1379;DHT22;683;48.738;9.226;2023-08-24T10:54:44;31.40;71.70
1379;DHT22;683;48.738;9.226;2023-08-24T10:57:22;31.40;73.40
1379;DHT22;683;48.738;9.226;2023-08-24T11:00:00;31.60;75.40
1379;DHT22;683;48.738;9.226;2023-08-24T11:02:40;31.60;72.60
1379;DHT22;683;48.738;9.226;2023-08-24T11:05:15;31.80;75.30
1379;DHT22;683;48.738;9.226;2023-08-24T11:07:50;32.00;69.30
1379;DHT22;683;48.738;9.226;2023-08-24T11:10:18;32.20;68.80
1379;DHT22;683;48.738;9.226;2023-08-24T11:13:07;32.30;74.40
1379;DHT22;683;48.738;9.226;2023-08-24T11:15:38;32.20;74.20
1379;DHT22;683;48.738;9.226;2023-08-24T11:18:19;32.50;72.10
1379;DHT22;683;48.738;9.226;2023-08-24T11:20:50;32.20;73.60
1379;DHT22;683;48.738;9.226;2023-08-24T11:23:18;32.40;75.40
1379;DHT22;683;48.738;9.226;2023-08-24T11:25:47;32.70;73.40
1379;DHT22;683;48.738;9.226;2023-08-24T11:28:21;32.80;73.60
1379;DHT22;683;48.738;9.226;2023-08-24T11:30:48;33.00;71.20
1379;DHT22;683;48.738;9.226;2023-08-24T11:33:16;33.10;72.80
1379;DHT22;683;48.738;9.226;2023-08-24T11:35:45;33.20;72.90
1379;DHT22;683;48.738;9.226;2023-08-24T11:38:13;33.40;73.30
1379;DHT22;683;48.738;9.226;2023-08-24T11:40:40;33.60;69.60
1379;DHT22;683;48.738;9.226;2023-08-24T11:43:08;33.40;70.00
1379;DHT22;683;48.738;9.226;2023-08-24T11:45:36;33.50;71.50
1379;DHT22;683;48.738;9.226;2023-08-24T11:48:06;33.40;72.80
1379;DHT22;683;48.738;9.226;2023-08-24T11:50:34;33.50;73.70
1379;DHT22;683;48.738;9.226;2023-08-24T11:53:01;33.50;70.50
1379;DHT22;683;48.738;9.226;2023-08-24T11:55:30;33.70;65.00
1379;DHT22;683;48.738;9.226;2023-08-24T11:57:57;34.10;70.90
1379;DHT22;683;48.738;9.226;2023-08-24T12:00:25;34.40;67.30
1379;DHT22;683;48.738;9.226;2023-08-24T12:02:52;34.70;68.40
1379;DHT22;683;48.738;9.226;2023-08-24T12:05:21;34.80;66.20
1379;DHT22;683;48.738;9.226;2023-08-24T12:07:49;34.90;64.20
1379;DHT22;683;48.738;9.226;2023-08-24T12:10:16;34.70;61.50
1379;DHT22;683;48.738;9.226;2023-08-24T12:12:45;34.70;60.70
1379;DHT22;683;48.738;9.226;2023-08-24T12:15:16;34.70;59.50
1379;DHT22;683;48.738;9.226;2023-08-24T12:17:44;34.90;59.10
1379;DHT22;683;48.738;9.226;2023-08-24T12:20:18;35.10;59.80
1379;DHT22;683;48.738;9.226;2023-08-24T12:22:53;35.40;65.40
1379;DHT22;683;48.738;9.226;2023-08-24T12:25:23;35.70;64.70
1379;DHT22;683;48.738;9.226;2023-08-24T12:27:52;36.40;63.00
1379;DHT22;683;48.738;9.226;2023-08-24T12:30:20;37.70;60.10
1379;DHT22;683;48.738;9.226;2023-08-24T12:32:48;38.80;59.30
1379;DHT22;683;48.738;9.226;2023-08-24T12:35:16;40.00;53.80
1379;DHT22;683;48.738;9.226;2023-08-24T12:37:43;40.80;52.20
1379;DHT22;683;48.738;9.226;2023-08-24T12:40:12;41.80;48.10
1379;DHT22;683;48.738;9.226;2023-08-24T12:42:39;42.20;48.40
1379;DHT22;683;48.738;9.226;2023-08-24T12:45:08;42.40;50.00
1379;DHT22;683;48.738;9.226;2023-08-24T12:47:36;42.40;48.50
1379;DHT22;683;48.738;9.226;2023-08-24T12:50:08;42.40;46.30
1379;DHT22;683;48.738;9.226;2023-08-24T12:52:35;42.30;45.60
1379;DHT22;683;48.738;9.226;2023-08-24T12:55:03;42.40;48.90
1379;DHT22;683;48.738;9.226;2023-08-24T12:57:30;42.90;49.90
1379;DHT22;683;48.738;9.226;2023-08-24T12:59:57;43.80;49.10
1379;DHT22;683;48.738;9.226;2023-08-24T13:02:26;44.70;47.30
1379;DHT22;683;48.738;9.226;2023-08-24T13:04:53;45.10;45.80
1379;DHT22;683;48.738;9.226;2023-08-24T13:07:22;45.90;46.30
1379;DHT22;683;48.738;9.226;2023-08-24T13:09:49;46.10;46.90
1379;DHT22;683;48.738;9.226;2023-08-24T13:12:16;45.80;40.40
1379;DHT22;683;48.738;9.226;2023-08-24T13:14:43;46.10;43.70
1379;DHT22;683;48.738;9.226;2023-08-24T13:17:11;46.00;41.70
1379;DHT22;683;48.738;9.226;2023-08-24T13:19:39;45.60;39.40
1379;DHT22;683;48.738;9.226;2023-08-24T13:22:06;45.80;43.30
1379;DHT22;683;48.738;9.226;2023-08-24T13:24:33;44.20;45.30
1379;DHT22;683;48.738;9.226;2023-08-24T13:27:02;43.70;40.60
1379;DHT22;683;48.738;9.226;2023-08-24T13:29:29;42.90;45.80
1379;DHT22;683;48.738;9.226;2023-08-24T13:31:56;42.60;43.50
1379;DHT22;683;48.738;9.226;2023-08-24T13:34:24;42.70;46.30
1379;DHT22;683;48.738;9.226;2023-08-24T13:36:55;43.90;43.70
1379;DHT22;683;48.738;9.226;2023-08-24T13:39:23;45.50;42.10
1379;DHT22;683;48.738;9.226;2023-08-24T13:41:50;45.40;42.60
1379;DHT22;683;48.738;9.226;2023-08-24T13:44:17;44.30;38.90
1379;DHT22;683;48.738;9.226;2023-08-24T13:46:44;43.20;45.80
1379;DHT22;683;48.738;9.226;2023-08-24T13:49:13;42.90;43.90
1379;DHT22;683;48.738;9.226;2023-08-24T13:51:40;42.60;47.40
1379;DHT22;683;48.738;9.226;2023-08-24T13:54:13;41.10;46.90
1379;DHT22;683;48.738;9.226;2023-08-24T13:56:41;40.50;48.20
1379;DHT22;683;48.738;9.226;2023-08-24T13:59:08;41.80;48.20
1379;DHT22;683;48.738;9.226;2023-08-24T14:01:36;42.80;45.50
1379;DHT22;683;48.738;9.226;2023-08-24T14:04:03;43.50;46.40
1379;DHT22;683;48.738;9.226;2023-08-24T14:06:31;44.10;44.60
1379;DHT22;683;48.738;9.226;2023-08-24T14:08:59;45.70;44.10
1379;DHT22;683;48.738;9.226;2023-08-24T14:11:30;46.10;40.70
1379;DHT22;683;48.738;9.226;2023-08-24T14:14:00;46.60;42.70
1379;DHT22;683;48.738;9.226;2023-08-24T14:16:27;46.50;42.90
1379;DHT22;683;48.738;9.226;2023-08-24T14:18:54;45.20;41.10
1379;DHT22;683;48.738;9.226;2023-08-24T14:21:21;44.00;42.40
1379;DHT22;683;48.738;9.226;2023-08-24T14:23:49;43.30;43.40
1379;DHT22;683;48.738;9.226;2023-08-24T14:26:17;42.50;44.70
1379;DHT22;683;48.738;9.226;2023-08-24T14:28:49;41.00;47.40
1379;DHT22;683;48.738;9.226;2023-08-24T14:31:16;40.30;46.30
1379;DHT22;683;48.738;9.226;2023-08-24T14:33:43;39.60;47.90
1379;DHT22;683;48.738;9.226;2023-08-24T14:36:11;38.80;48.20
1379;DHT22;683;48.738;9.226;2023-08-24T14:38:42;38.00;50.50
1379;DHT22;683;48.738;9.226;2023-08-24T14:41:10;37.30;49.90
1379;DHT22;683;48.738;9.226;2023-08-24T14:43:37;36.60;51.40
1379;DHT22;683;48.738;9.226;2023-08-24T14:46:06;36.30;53.10
1379;DHT22;683;48.738;9.226;2023-08-24T14:48:33;35.20;53.50
1379;DHT22;683;48.738;9.226;2023-08-24T14:51:01;35.30;54.10
1379;DHT22;683;48.738;9.226;2023-08-24T14:53:28;34.80;53.20
1379;DHT22;683;48.738;9.226;2023-08-24T14:55:56;34.60;53.50
1379;DHT22;683;48.738;9.226;2023-08-24T14:58:24;34.30;54.70
1379;DHT22;683;48.738;9.226;2023-08-24T15:00:53;34.50;55.50
1379;DHT22;683;48.738;9.226;2023-08-24T15:03:22;33.50;55.70
1379;DHT22;683;48.738;9.226;2023-08-24T15:05:56;33.70;57.20
1379;DHT22;683;48.738;9.226;2023-08-24T15:08:25;33.10;57.80
1379;DHT22;683;48.738;9.226;2023-08-24T15:10:54;32.30;65.60
1379;DHT22;683;48.738;9.226;2023-08-24T15:13:22;31.70;68.00
1379;DHT22;683;48.738;9.226;2023-08-24T15:15:49;31.20;69.50
1379;DHT22;683;48.738;9.226;2023-08-24T15:18:16;30.40;73.20
1379;DHT22;683;48.738;9.226;2023-08-24T15:20:45;29.00;90.00
1379;DHT22;683;48.738;9.226;2023-08-24T15:23:20;27.40;91.70
1379;DHT22;683;48.738;9.226;2023-08-24T15:25:47;26.40;94.40
1379;DHT22;683;48.738;9.226;2023-08-24T15:28:14;25.90;96.20
1379;DHT22;683;48.738;9.226;2023-08-24T15:30:42;25.70;97.50
1379;DHT22;683;48.738;9.226;2023-08-24T15:33:09;25.70;95.50
1379;DHT22;683;48.738;9.226;2023-08-24T15:35:36;25.90;98.50
1379;DHT22;683;48.738;9.226;2023-08-24T15:38:05;25.50;97.00
1379;DHT22;683;48.738;9.226;2023-08-24T15:40:32;26.00;98.20
1379;DHT22;683;48.738;9.226;2023-08-24T15:43:00;26.00;97.20
1379;DHT22;683;48.738;9.226;2023-08-24T15:45:28;26.00;98.00
1379;DHT22;683;48.738;9.226;2023-08-24T15:47:59;26.30;98.50
1379;DHT22;683;48.738;9.226;2023-08-24T15:50:27;26.30;98.80
1379;DHT22;683;48.738;9.226;2023-08-24T15:52:57;26.20;98.30
1379;DHT22;683;48.738;9.226;2023-08-24T15:55:30;26.00;97.60
1379;DHT22;683;48.738;9.226;2023-08-24T15:57:59;25.90;98.40
1379;DHT22;683;48.738;9.226;2023-08-24T16:00:27;25.80;99.90
1379;DHT22;683;48.738;9.226;2023-08-24T16:02:54;25.60;99.90
1379;DHT22;683;48.738;9.226;2023-08-24T16:05:21;25.50;99.90
1379;DHT22;683;48.738;9.226;2023-08-24T16:07:51;25.70;99.90
1379;DHT22;683;48.738;9.226;2023-08-24T16:10:18;25.30;99.90
1379;DHT22;683;48.738;9.226;2023-08-24T16:12:49;25.60;99.30
1379;DHT22;683;48.738;9.226;2023-08-24T16:15:18;25.90;99.90
1379;DHT22;683;48.738;9.226;2023-08-24T16:17:48;26.50;98.20
1379;DHT22;683;48.738;9.226;2023-08-24T16:20:15;27.00;97.00
1379;DHT22;683;48.738;9.226;2023-08-24T16:22:43;27.00;96.10
1379;DHT22;683;48.738;9.226;2023-08-24T16:25:10;26.80;96.70